METAR Formatted Surface Weather Observation
Issued by NWS

Home | Current Version | Previous Version | Text Only | Print | Product List | Glossary On
Versions: 1 2 3 4 5 6 7 8 9 10 11 12 13 14 15 16 17 18 19
000
SAUS41 KLWX 050258
MTRNYG
METAR KNYG 050256Z AUTO 20003KT 10SM FEW065 FEW085 26/19 A2991 RMK
AO2 RAB27E39 TSE12B19E33 SLP128 P0000 60000 T02610194 50000



USA.gov is the U.S. government's official web portal to all federal, state and local government web resources and services.